Terminal Aerodrome Forecast
Issued by NWS

Home | Current Version | Previous Version | Text Only | Print | Product List | Glossary On
Versions: 1 2 3 4 5 6 7 8 9 10 11 12 13 14 15 16 17 18 19
000
FTUS41 KGYX 072320
TAFPSM
TAF
KPSM 072320Z 0800/0824 16006KT P6SM VCSH SCT025 BKN035 BKN080
     FM080400 20005KT 3SM BR SCT080 BKN250
      TEMPO 0804/0808 2SM BR BKN008 BKN060
     FM081200 24007KT 6SM HZ SCT050 BKN080
     FM081600 30008KT P6SM SCT060 BKN100
     FM081900 31008KT P6SM SCT060 SCT120=

USA.gov is the U.S. government's official web portal to all federal, state and local government web resources and services.